Bridgeport, Nebraska
Current Conditions -  °F | °C
As of 3:53 AM on Friday 19 Dec 2014 (Local Time) from KBFF Reporting Station
Clear Clear  
Wind Chill:   Ceiling: Unl
Heat Index:   Visibility: 9mi
Dew Point:   Wind: 3mph
Humidity: 88%   Direction: 340°NNW
Pressure: 30.06"   Gusts: NA
Location:  41.67°N, 103.1°W
Report Text: KBFF 191053Z AUTO 34003KT 9SM CLR M16/M17 A3006 RMK AO2 SLP245 T11561172
Loading
Personal Weather Stations






























Interactive Weather Map New forecast layout! Learn more

10-Day Weather Forecast

Advertisements
Track Severe Weather on mobile